Terminal Aerodrome Forecast
Issued by NWS Tuscon, AZ

Current Version | Previous Version | Text Only | Print | Product List | Glossary On
Versions: 1 2 3 4 5 6 7 8 9 10 11 12 13
000
FTUS45 KTWC 242339
TAFTUS
TAF
KTUS 242339Z 2500/2524 19012KT P6SM SCT120 OVC200
     FM250800 14006KT P6SM FEW130 BKN250
     FM251600 VRB03KT P6SM SCT120 SCT250
     FM252000 32009KT P6SM SCT100 SCT150 BKN250=

USA.gov is the U.S. government's official web portal to all federal, state and local government web resources and services.